Aérodrome :
LOGIN :

S'inscrire | Disclaimer

   EN    FR    IT 

 










Légende :    VFR   VFR Marginal   IFR   IFR Intensif   IFR Très Intensif
Visi : 
Plafond : 
>= 8 km
>= 3000ft
5 à 8 km
1000 à 3000 ft
1500m à 5 km
500 à 1000 ft
800 à 1500m
200 à 500 ft
< 800m
< 200 ft
Symboles :   Orages  Brouillard  Fortes neiges  Fortes précipitations  Vent > 20 kt
SIGMETs :   Divers  Orages  Givrage  Turbulence  Onde Orograph.  Cendres Volcan.







- Altitude de l'aérodrome : 2945 ft
- Code IATA : RGS


LEBG - Burgos

DERNIER METAR :
  • 211800Z 06003KT 030V100 CAVOK 15/10 Q1023

METARs EXPIRÉS :
  • 211730Z 05006KT CAVOK 17/10 Q1023
  • 211700Z 04008KT CAVOK 18/10 Q1023
  • 211630Z 05009KT CAVOK 19/11 Q1023
  • 211600Z 04010KT 360V070 CAVOK 20/11 Q1023
  • 211530Z 04009KT 010V070 CAVOK 20/10 Q1023

TAF TAF LEBG
Valide du 21 à 18h jusqu'au 22 à 03h UTC


211700Z 2118/2203 06006KT CAVOK
BECMG 2122/2123 2500 BR BKN004
TEMPO 2202/2203 0600 BCFG
Pas de NOTAMs connus pour ce terrain.
1 SIGMET publié pour la FIR Madrid (LECM) :
 
Orages noyés dans la masse
LECM SIGMET 9 VALID 211744/211930 LEVA
LECM MADRID FIR/UIR EMBD TS OBS AT 1744Z WI N4040 W00430 - N3920 W00310 - N38 W004 - N40 W00610 - N4040 W00430 TOP FL360 MOV NW NC=



MET'MAP, la Météo Aéronautique d'un coup d'oeil ! - Copyright ORBIFLY Décembre 2007 - Disclaimer

ORBIFLY MET'MAP TEAM :

Programmation & Développement : Alexandra Zaïnal
Conception & Développement : Baudouin d'Aumeries
Co-Programmation & Développement : Marc-Olivier Méhu
Soutien technique & logistique : Manuel Goepfert

Contact : metmap@orbifly.com




SOURCES & CREDITS :

   NOAA